NCAR-RAP Real-Time Weather Data

Output produced by METARs form (29 August 2015  00:14 UTC)
found at http://weather.rap.ucar.edu/surface/
 
Conditions at: KALB observed 28 August 2015  23:51 UTC
Temperature: 20.6°C (69°F)
Dewpoint: 11.7°C (53°F) [RH = 57%]
Pressure (altimeter): 30.16 inches Hg (1021.4 mb)
[Sea-level pressure: 1021.1 mb]
Winds: from the W (260 degrees) at 7 MPH (6 knots; 3.1 m/s)
Visibility: 10 or more miles (16+ km)
Ceiling: at least 12,000 feet AGL
Clouds: few clouds at 6500 feet AGL
few clouds at 26000 feet AGL
Present Weather: no significant weather observed at this time
KALB 282351Z 26006KT 10SM FEW065 FEW260 21/12 A3016 RMK AO2 SLP211 T02060117 10256 20206 53005

Conditions at: KALB observed 28 August 2015  22:51 UTC
Temperature: 22.8°C (73°F)
Dewpoint: 11.1°C (52°F) [RH = 48%]
Pressure (altimeter): 30.14 inches Hg (1020.7 mb)
[Sea-level pressure: 1020.7 mb]
Winds: from the W (270 degrees) at 7 MPH (6 knots; 3.1 m/s)
Visibility: 10 or more miles (16+ km)
Ceiling: at least 12,000 feet AGL
Clouds: few clouds at 6000 feet AGL
scattered clouds at 26000 feet AGL
Present Weather: no significant weather observed at this time
KALB 282251Z 27006KT 10SM FEW060 SCT260 23/11 A3014 RMK AO2 SLP207 FEW V SCT T02280111

Conditions at: KALB observed 28 August 2015  21:51 UTC
Temperature: 23.3°C (74°F)
Dewpoint: 12.8°C (55°F) [RH = 52%]
Pressure (altimeter): 30.14 inches Hg (1020.7 mb)
[Sea-level pressure: 1020.6 mb]
Winds: from the W (270 degrees) at 6 MPH (5 knots; 2.6 m/s)
Visibility: 10 or more miles (16+ km)
Ceiling: 6000 feet AGL
Clouds: broken clouds at 6000 feet AGL
broken clouds at 26000 feet AGL
Present Weather: no significant weather observed at this time
KALB 282151Z 27005KT 10SM BKN060 BKN260 23/13 A3014 RMK AO2 SLP206 T02330128

Conditions at: KALB observed 28 August 2015  20:51 UTC
Temperature: 23.9°C (75°F)
Dewpoint: 11.7°C (53°F) [RH = 46%]
Pressure (altimeter): 30.14 inches Hg (1020.7 mb)
[Sea-level pressure: 1020.6 mb]
Winds: from the NNW (340 degrees) at 3 MPH (3 knots; 1.6 m/s)
Visibility: 10 or more miles (16+ km)
Ceiling: 5500 feet AGL
Clouds: broken clouds at 5500 feet AGL
broken clouds at 26000 feet AGL
Present Weather: no significant weather observed at this time
KALB 282051Z 34003KT 10SM BKN055 BKN260 24/12 A3014 RMK AO2 SLP206 T02390117 56012

Conditions at: KALB observed 28 August 2015  19:51 UTC
Temperature: 23.9°C (75°F)
Dewpoint: 11.1°C (52°F) [RH = 45%]
Pressure (altimeter): 30.14 inches Hg (1020.7 mb)
[Sea-level pressure: 1020.6 mb]
Winds: from the NNE (30 degrees) at 3 MPH (3 knots; 1.6 m/s)
Visibility: 10 or more miles (16+ km)
Ceiling: 5000 feet AGL
Clouds: broken clouds at 5000 feet AGL
broken clouds at 6000 feet AGL
Present Weather: no significant weather observed at this time
KALB 281951Z 03003KT 10SM BKN050 BKN060 24/11 A3014 RMK AO2 SLP206 T02390111

Conditions at: KALB observed 28 August 2015  18:51 UTC
Temperature: 23.9°C (75°F)
Dewpoint: 11.1°C (52°F) [RH = 45%]
Pressure (altimeter): 30.15 inches Hg (1021.1 mb)
[Sea-level pressure: 1021.1 mb]
Winds: variable direction winds at 3 MPH (3 knots; 1.6 m/s)
Visibility: 10 or more miles (16+ km)
Ceiling: 6000 feet AGL
Clouds: scattered clouds at 5000 feet AGL
broken clouds at 6000 feet AGL
Present Weather: no significant weather observed at this time
KALB 281851Z VRB03KT 10SM SCT050 BKN060 24/11 A3015 RMK AO2 SLP211 BKN V SCT T02390111

Conditions at: KALB observed 28 August 2015  17:51 UTC
Temperature: 22.8°C (73°F)
Dewpoint: 11.7°C (53°F) [RH = 50%]
Pressure (altimeter): 30.18 inches Hg (1022.1 mb)
[Sea-level pressure: 1021.8 mb]
Winds: from the NW (320 degrees) at 3 MPH (3 knots; 1.6 m/s)
Visibility: 10 or more miles (16+ km)
Ceiling: 5500 feet AGL
Clouds: scattered clouds at 4400 feet AGL
broken clouds at 5500 feet AGL
Present Weather: no significant weather observed at this time
KALB 281751Z 32003KT 10SM SCT044 BKN055 23/12 A3018 RMK AO2 SLP218 T02280117 10239 20161 58010

Conditions at: KALB observed 28 August 2015  16:51 UTC
Temperature: 23.3°C (74°F)
Dewpoint: 12.2°C (54°F) [RH = 50%]
Pressure (altimeter): 30.18 inches Hg (1022.1 mb)
[Sea-level pressure: 1022.1 mb]
Winds: calm
Visibility: 10 or more miles (16+ km)
Ceiling: 4200 feet AGL
Clouds: broken clouds at 4200 feet AGL
Present Weather: no significant weather observed at this time
KALB 281651Z 00000KT 10SM BKN042 23/12 A3018 RMK AO2 SLP221 BKN V SCT T02330122

Conditions at: KALB observed 28 August 2015  15:51 UTC
Temperature: 22.2°C (72°F)
Dewpoint: 12.8°C (55°F) [RH = 55%]
Pressure (altimeter): 30.20 inches Hg (1022.8 mb)
[Sea-level pressure: 1022.7 mb]
Winds: variable direction winds at 6 MPH (5 knots; 2.6 m/s)
Visibility: 10 or more miles (16+ km)
Ceiling: at least 12,000 feet AGL
Clouds: scattered clouds at 3300 feet AGL
Present Weather: no significant weather observed at this time
KALB 281551Z VRB05KT 10SM SCT033 22/13 A3020 RMK AO2 SLP227 T02220128

Conditions at: KALB observed 28 August 2015  14:51 UTC
Temperature: 21.1°C (70°F)
Dewpoint: 12.8°C (55°F) [RH = 59%]
Pressure (altimeter): 30.21 inches Hg (1023.1 mb)
[Sea-level pressure: 1022.8 mb]
Winds: variable direction winds at 5 MPH (4 knots; 2.1 m/s)
Visibility: 10 or more miles (16+ km)
Ceiling: at least 12,000 feet AGL
Clouds: scattered clouds at 2800 feet AGL
Present Weather: no significant weather observed at this time
KALB 281451Z VRB04KT 10SM SCT028 21/13 A3021 RMK AO2 SLP228 T02110128 51006

Conditions at: KALB observed 28 August 2015  13:51 UTC
Temperature: 19.4°C (67°F)
Dewpoint: 13.3°C (56°F) [RH = 68%]
Pressure (altimeter): 30.20 inches Hg (1022.8 mb)
[Sea-level pressure: 1022.7 mb]
Winds: calm
Visibility: 10 or more miles (16+ km)
Ceiling: at least 12,000 feet AGL
Clouds: few clouds at 2100 feet AGL
Present Weather: no significant weather observed at this time
KALB 281351Z 00000KT 10SM FEW021 19/13 A3020 RMK AO2 SLP227 T01940133

Conditions at: KALB observed 28 August 2015  12:51 UTC
Temperature: 18.3°C (65°F)
Dewpoint: 12.8°C (55°F) [RH = 70%]
Pressure (altimeter): 30.20 inches Hg (1022.8 mb)
[Sea-level pressure: 1022.5 mb]
Winds: from the N (350 degrees) at 5 MPH (4 knots; 2.1 m/s)
Visibility: 10 or more miles (16+ km)
Ceiling: at least 12,000 feet AGL
Clouds: few clouds at 1700 feet AGL
Present Weather: no significant weather observed at this time
KALB 281251Z 35004KT 10SM FEW017 18/13 A3020 RMK AO2 SLP225 T01830128